sensor_id;sensor_type;location;lat;lon;timestamp;P1;durP1;ratioP1;P2;durP2;ratioP2
20283;SDS011;10301;50.832;4.080;2023-11-21T00:00:14;40.83;;;20.25;;
20283;SDS011;10301;50.832;4.080;2023-11-21T00:02:41;39.53;;;19.58;;
20283;SDS011;10301;50.832;4.080;2023-11-21T00:05:10;37.00;;;18.67;;
20283;SDS011;10301;50.832;4.080;2023-11-21T00:07:39;39.72;;;19.27;;
20283;SDS011;10301;50.832;4.080;2023-11-21T00:10:05;41.17;;;19.23;;
20283;SDS011;10301;50.832;4.080;2023-11-21T00:12:32;42.97;;;19.90;;
20283;SDS011;10301;50.832;4.080;2023-11-21T00:14:58;34.90;;;18.48;;
20283;SDS011;10301;50.832;4.080;2023-11-21T00:17:24;35.63;;;19.17;;
20283;SDS011;10301;50.832;4.080;2023-11-21T00:19:49;38.72;;;18.80;;
20283;SDS011;10301;50.832;4.080;2023-11-21T00:22:17;37.92;;;19.88;;
20283;SDS011;10301;50.832;4.080;2023-11-21T00:24:43;35.77;;;18.97;;
20283;SDS011;10301;50.832;4.080;2023-11-21T00:27:09;38.47;;;18.53;;
20283;SDS011;10301;50.832;4.080;2023-11-21T00:29:35;38.25;;;19.13;;
20283;SDS011;10301;50.832;4.080;2023-11-21T00:32:01;34.90;;;18.23;;
20283;SDS011;10301;50.832;4.080;2023-11-21T00:34:27;34.37;;;16.93;;
20283;SDS011;10301;50.832;4.080;2023-11-21T00:36:52;34.80;;;17.77;;
20283;SDS011;10301;50.832;4.080;2023-11-21T00:39:18;39.03;;;18.63;;
20283;SDS011;10301;50.832;4.080;2023-11-21T00:41:44;34.90;;;18.27;;
20283;SDS011;10301;50.832;4.080;2023-11-21T00:44:10;34.00;;;17.93;;
20283;SDS011;10301;50.832;4.080;2023-11-21T00:46:36;35.03;;;18.37;;
20283;SDS011;10301;50.832;4.080;2023-11-21T00:49:02;37.85;;;17.92;;
20283;SDS011;10301;50.832;4.080;2023-11-21T00:51:29;38.20;;;18.52;;
20283;SDS011;10301;50.832;4.080;2023-11-21T00:53:55;37.17;;;17.60;;
20283;SDS011;10301;50.832;4.080;2023-11-21T00:56:21;36.53;;;18.13;;
20283;SDS011;10301;50.832;4.080;2023-11-21T00:58:47;35.55;;;18.38;;
20283;SDS011;10301;50.832;4.080;2023-11-21T01:01:17;39.35;;;20.05;;
20283;SDS011;10301;50.832;4.080;2023-11-21T01:03:47;32.13;;;18.05;;
20283;SDS011;10301;50.832;4.080;2023-11-21T01:06:14;35.35;;;18.13;;
20283;SDS011;10301;50.832;4.080;2023-11-21T01:08:40;37.97;;;17.95;;
20283;SDS011;10301;50.832;4.080;2023-11-21T01:11:06;31.08;;;17.52;;
20283;SDS011;10301;50.832;4.080;2023-11-21T01:13:33;34.88;;;17.83;;
20283;SDS011;10301;50.832;4.080;2023-11-21T01:16:00;31.63;;;17.33;;
20283;SDS011;10301;50.832;4.080;2023-11-21T01:18:26;33.97;;;17.90;;
20283;SDS011;10301;50.832;4.080;2023-11-21T01:20:52;34.00;;;18.40;;
20283;SDS011;10301;50.832;4.080;2023-11-21T01:23:20;36.35;;;18.17;;
20283;SDS011;10301;50.832;4.080;2023-11-21T01:25:46;34.78;;;18.80;;
20283;SDS011;10301;50.832;4.080;2023-11-21T01:28:11;39.15;;;19.92;;
20283;SDS011;10301;50.832;4.080;2023-11-21T01:30:37;39.83;;;20.15;;
20283;SDS011;10301;50.832;4.080;2023-11-21T01:33:03;31.00;;;17.70;;
20283;SDS011;10301;50.832;4.080;2023-11-21T01:35:29;36.95;;;18.55;;
20283;SDS011;10301;50.832;4.080;2023-11-21T01:37:55;36.30;;;19.40;;
20283;SDS011;10301;50.832;4.080;2023-11-21T01:40:21;36.05;;;19.25;;
20283;SDS011;10301;50.832;4.080;2023-11-21T01:42:47;35.85;;;18.67;;
20283;SDS011;10301;50.832;4.080;2023-11-21T01:45:13;35.35;;;18.48;;
20283;SDS011;10301;50.832;4.080;2023-11-21T01:47:40;36.83;;;18.05;;
20283;SDS011;10301;50.832;4.080;2023-11-21T01:50:07;36.22;;;17.95;;
20283;SDS011;10301;50.832;4.080;2023-11-21T01:52:37;32.20;;;18.98;;
20283;SDS011;10301;50.832;4.080;2023-11-21T01:55:04;36.75;;;18.42;;
20283;SDS011;10301;50.832;4.080;2023-11-21T01:57:31;32.53;;;17.23;;
20283;SDS011;10301;50.832;4.080;2023-11-21T01:59:57;30.45;;;16.30;;
20283;SDS011;10301;50.832;4.080;2023-11-21T02:02:40;33.63;;;16.63;;
20283;SDS011;10301;50.832;4.080;2023-11-21T02:05:14;26.98;;;16.42;;
20283;SDS011;10301;50.832;4.080;2023-11-21T02:07:44;27.73;;;16.67;;
20283;SDS011;10301;50.832;4.080;2023-11-21T02:10:12;29.55;;;16.85;;
20283;SDS011;10301;50.832;4.080;2023-11-21T02:12:42;26.95;;;16.80;;
20283;SDS011;10301;50.832;4.080;2023-11-21T02:15:12;34.95;;;18.13;;
20283;SDS011;10301;50.832;4.080;2023-11-21T02:17:45;27.15;;;16.23;;
20283;SDS011;10301;50.832;4.080;2023-11-21T02:20:16;27.98;;;16.50;;
20283;SDS011;10301;50.832;4.080;2023-11-21T02:22:43;34.17;;;17.80;;
20283;SDS011;10301;50.832;4.080;2023-11-21T02:25:13;27.55;;;16.15;;
20283;SDS011;10301;50.832;4.080;2023-11-21T02:27:39;32.35;;;16.83;;
20283;SDS011;10301;50.832;4.080;2023-11-21T02:30:05;26.92;;;16.00;;
20283;SDS011;10301;50.832;4.080;2023-11-21T02:32:32;33.08;;;16.60;;
20283;SDS011;10301;50.832;4.080;2023-11-21T02:34:59;29.05;;;16.35;;
20283;SDS011;10301;50.832;4.080;2023-11-21T02:37:26;31.23;;;16.50;;
20283;SDS011;10301;50.832;4.080;2023-11-21T02:39:52;26.77;;;16.65;;
20283;SDS011;10301;50.832;4.080;2023-11-21T02:42:18;29.00;;;16.67;;
20283;SDS011;10301;50.832;4.080;2023-11-21T02:44:43;27.52;;;16.33;;
20283;SDS011;10301;50.832;4.080;2023-11-21T02:47:09;29.73;;;16.13;;
20283;SDS011;10301;50.832;4.080;2023-11-21T02:49:35;31.63;;;18.00;;
20283;SDS011;10301;50.832;4.080;2023-11-21T02:52:01;31.48;;;16.25;;
20283;SDS011;10301;50.832;4.080;2023-11-21T02:54:27;34.28;;;17.48;;
20283;SDS011;10301;50.832;4.080;2023-11-21T02:56:52;30.67;;;18.02;;
20283;SDS011;10301;50.832;4.080;2023-11-21T02:59:18;28.83;;;17.83;;
20283;SDS011;10301;50.832;4.080;2023-11-21T03:01:44;33.08;;;17.80;;
20283;SDS011;10301;50.832;4.080;2023-11-21T03:04:11;37.72;;;19.10;;
20283;SDS011;10301;50.832;4.080;2023-11-21T03:06:42;33.30;;;18.90;;
20283;SDS011;10301;50.832;4.080;2023-11-21T03:09:09;40.90;;;19.88;;
20283;SDS011;10301;50.832;4.080;2023-11-21T03:11:34;30.20;;;18.70;;
20283;SDS011;10301;50.832;4.080;2023-11-21T03:14:00;40.45;;;21.10;;
20283;SDS011;10301;50.832;4.080;2023-11-21T03:16:26;42.17;;;21.42;;
20283;SDS011;10301;50.832;4.080;2023-11-21T03:18:51;39.50;;;20.95;;
20283;SDS011;10301;50.832;4.080;2023-11-21T03:21:17;40.22;;;21.58;;
20283;SDS011;10301;50.832;4.080;2023-11-21T03:23:44;42.70;;;21.70;;
20283;SDS011;10301;50.832;4.080;2023-11-21T03:26:13;38.33;;;22.10;;
20283;SDS011;10301;50.832;4.080;2023-11-21T03:28:38;38.63;;;21.95;;
20283;SDS011;10301;50.832;4.080;2023-11-21T03:31:04;37.33;;;22.52;;
20283;SDS011;10301;50.832;4.080;2023-11-21T03:33:31;42.05;;;23.13;;
20283;SDS011;10301;50.832;4.080;2023-11-21T03:35:57;42.47;;;23.95;;
20283;SDS011;10301;50.832;4.080;2023-11-21T03:38:23;43.38;;;23.00;;
20283;SDS011;10301;50.832;4.080;2023-11-21T03:40:48;39.95;;;22.48;;
20283;SDS011;10301;50.832;4.080;2023-11-21T03:43:15;42.22;;;22.67;;
20283;SDS011;10301;50.832;4.080;2023-11-21T03:45:41;38.45;;;20.80;;
20283;SDS011;10301;50.832;4.080;2023-11-21T03:48:07;42.90;;;22.55;;
20283;SDS011;10301;50.832;4.080;2023-11-21T03:50:34;44.28;;;23.75;;
20283;SDS011;10301;50.832;4.080;2023-11-21T03:53:00;36.72;;;22.40;;
20283;SDS011;10301;50.832;4.080;2023-11-21T03:55:25;45.53;;;22.52;;
20283;SDS011;10301;50.832;4.080;2023-11-21T03:57:51;42.38;;;22.45;;
20283;SDS011;10301;50.832;4.080;2023-11-21T04:00:17;42.47;;;23.15;;
20283;SDS011;10301;50.832;4.080;2023-11-21T04:02:45;42.22;;;23.45;;
20283;SDS011;10301;50.832;4.080;2023-11-21T04:05:11;43.70;;;22.48;;
20283;SDS011;10301;50.832;4.080;2023-11-21T04:07:37;44.80;;;23.50;;
20283;SDS011;10301;50.832;4.080;2023-11-21T04:10:04;43.00;;;22.85;;
20283;SDS011;10301;50.832;4.080;2023-11-21T04:12:33;43.13;;;22.55;;
20283;SDS011;10301;50.832;4.080;2023-11-21T04:14:59;45.50;;;22.85;;
20283;SDS011;10301;50.832;4.080;2023-11-21T04:17:24;43.58;;;22.85;;
20283;SDS011;10301;50.832;4.080;2023-11-21T04:19:50;42.83;;;22.80;;
20283;SDS011;10301;50.832;4.080;2023-11-21T04:22:16;43.10;;;22.92;;
20283;SDS011;10301;50.832;4.080;2023-11-21T04:24:41;50.45;;;23.52;;
20283;SDS011;10301;50.832;4.080;2023-11-21T04:27:07;51.08;;;24.10;;
20283;SDS011;10301;50.832;4.080;2023-11-21T04:29:33;45.67;;;23.77;;
20283;SDS011;10301;50.832;4.080;2023-11-21T04:31:58;48.10;;;24.55;;
20283;SDS011;10301;50.832;4.080;2023-11-21T04:34:24;40.92;;;23.25;;
20283;SDS011;10301;50.832;4.080;2023-11-21T04:36:50;48.60;;;23.92;;
20283;SDS011;10301;50.832;4.080;2023-11-21T04:39:15;52.67;;;25.30;;
20283;SDS011;10301;50.832;4.080;2023-11-21T04:41:41;48.22;;;24.50;;
20283;SDS011;10301;50.832;4.080;2023-11-21T04:44:07;45.25;;;23.88;;
20283;SDS011;10301;50.832;4.080;2023-11-21T04:46:33;46.72;;;24.30;;
20283;SDS011;10301;50.832;4.080;2023-11-21T04:48:59;43.47;;;24.70;;
20283;SDS011;10301;50.832;4.080;2023-11-21T04:51:24;42.55;;;24.17;;
20283;SDS011;10301;50.832;4.080;2023-11-21T04:53:50;51.35;;;24.52;;
20283;SDS011;10301;50.832;4.080;2023-11-21T04:56:16;45.85;;;24.25;;
20283;SDS011;10301;50.832;4.080;2023-11-21T04:58:41;40.65;;;24.15;;
20283;SDS011;10301;50.832;4.080;2023-11-21T05:01:07;40.65;;;23.13;;
20283;SDS011;10301;50.832;4.080;2023-11-21T05:03:33;44.20;;;23.92;;
20283;SDS011;10301;50.832;4.080;2023-11-21T05:05:59;45.05;;;25.20;;
20283;SDS011;10301;50.832;4.080;2023-11-21T05:08:25;39.72;;;23.63;;
20283;SDS011;10301;50.832;4.080;2023-11-21T05:10:51;52.53;;;26.33;;
20283;SDS011;10301;50.832;4.080;2023-11-21T05:13:18;53.15;;;27.25;;
20283;SDS011;10301;50.832;4.080;2023-11-21T05:15:45;45.28;;;26.08;;
20283;SDS011;10301;50.832;4.080;2023-11-21T05:18:10;47.35;;;25.80;;
20283;SDS011;10301;50.832;4.080;2023-11-21T05:20:38;44.40;;;26.38;;
20283;SDS011;10301;50.832;4.080;2023-11-21T05:23:05;55.72;;;28.40;;
20283;SDS011;10301;50.832;4.080;2023-11-21T05:25:32;53.55;;;27.67;;
20283;SDS011;10301;50.832;4.080;2023-11-21T05:27:58;49.22;;;28.00;;
20283;SDS011;10301;50.832;4.080;2023-11-21T05:30:26;51.30;;;27.40;;
20283;SDS011;10301;50.832;4.080;2023-11-21T05:32:52;51.10;;;27.75;;
20283;SDS011;10301;50.832;4.080;2023-11-21T05:35:18;48.40;;;26.48;;
20283;SDS011;10301;50.832;4.080;2023-11-21T05:37:44;48.10;;;26.55;;
20283;SDS011;10301;50.832;4.080;2023-11-21T05:40:10;48.05;;;28.13;;
20283;SDS011;10301;50.832;4.080;2023-11-21T05:42:38;44.17;;;28.40;;
20283;SDS011;10301;50.832;4.080;2023-11-21T05:45:05;47.63;;;24.00;;
20283;SDS011;10301;50.832;4.080;2023-11-21T05:47:44;44.15;;;25.27;;
20283;SDS011;10301;50.832;4.080;2023-11-21T05:50:13;44.95;;;24.20;;
20283;SDS011;10301;50.832;4.080;2023-11-21T05:52:41;46.72;;;24.98;;
20283;SDS011;10301;50.832;4.080;2023-11-21T05:55:07;48.63;;;25.50;;
20283;SDS011;10301;50.832;4.080;2023-11-21T05:57:33;44.63;;;25.05;;
20283;SDS011;10301;50.832;4.080;2023-11-21T06:00:07;48.55;;;25.88;;
20283;SDS011;10301;50.832;4.080;2023-11-21T06:02:53;46.47;;;25.58;;
20283;SDS011;10301;50.832;4.080;2023-11-21T06:05:19;42.88;;;24.58;;
20283;SDS011;10301;50.832;4.080;2023-11-21T06:07:48;52.83;;;27.08;;
20283;SDS011;10301;50.832;4.080;2023-11-21T06:10:14;43.75;;;26.17;;
20283;SDS011;10301;50.832;4.080;2023-11-21T06:12:42;44.88;;;25.73;;
20283;SDS011;10301;50.832;4.080;2023-11-21T06:15:09;45.95;;;25.95;;
20283;SDS011;10301;50.832;4.080;2023-11-21T06:17:38;47.58;;;27.23;;
20283;SDS011;10301;50.832;4.080;2023-11-21T06:20:05;50.22;;;26.92;;
20283;SDS011;10301;50.832;4.080;2023-11-21T06:22:43;47.78;;;27.75;;
20283;SDS011;10301;50.832;4.080;2023-11-21T06:25:10;53.03;;;28.73;;
20283;SDS011;10301;50.832;4.080;2023-11-21T06:27:47;47.45;;;29.65;;
20283;SDS011;10301;50.832;4.080;2023-11-21T06:30:13;45.75;;;26.80;;
20283;SDS011;10301;50.832;4.080;2023-11-21T06:32:40;54.47;;;28.52;;
20283;SDS011;10301;50.832;4.080;2023-11-21T06:35:07;51.15;;;28.40;;
20283;SDS011;10301;50.832;4.080;2023-11-21T06:37:36;51.30;;;27.05;;
20283;SDS011;10301;50.832;4.080;2023-11-21T06:40:02;57.90;;;27.75;;
20283;SDS011;10301;50.832;4.080;2023-11-21T06:42:31;58.92;;;30.15;;
20283;SDS011;10301;50.832;4.080;2023-11-21T06:44:58;52.10;;;28.20;;
20283;SDS011;10301;50.832;4.080;2023-11-21T06:47:24;63.08;;;30.85;;
20283;SDS011;10301;50.832;4.080;2023-11-21T06:49:50;55.47;;;29.42;;
20283;SDS011;10301;50.832;4.080;2023-11-21T06:52:17;51.70;;;26.73;;
20283;SDS011;10301;50.832;4.080;2023-11-21T06:54:47;43.60;;;26.10;;
20283;SDS011;10301;50.832;4.080;2023-11-21T06:57:14;46.38;;;27.17;;
20283;SDS011;10301;50.832;4.080;2023-11-21T06:59:40;51.65;;;29.38;;
20283;SDS011;10301;50.832;4.080;2023-11-21T07:02:06;46.38;;;27.77;;
20283;SDS011;10301;50.832;4.080;2023-11-21T07:04:32;53.78;;;27.80;;
20283;SDS011;10301;50.832;4.080;2023-11-21T07:06:59;49.85;;;27.67;;
20283;SDS011;10301;50.832;4.080;2023-11-21T07:09:25;47.78;;;27.33;;
20283;SDS011;10301;50.832;4.080;2023-11-21T07:11:51;56.47;;;29.67;;
20283;SDS011;10301;50.832;4.080;2023-11-21T07:14:17;52.35;;;28.38;;
20283;SDS011;10301;50.832;4.080;2023-11-21T07:16:44;56.50;;;31.88;;
20283;SDS011;10301;50.832;4.080;2023-11-21T07:19:11;50.63;;;29.27;;
20283;SDS011;10301;50.832;4.080;2023-11-21T07:21:37;51.33;;;28.27;;
20283;SDS011;10301;50.832;4.080;2023-11-21T07:24:07;54.28;;;30.35;;
20283;SDS011;10301;50.832;4.080;2023-11-21T07:26:34;55.17;;;28.05;;
20283;SDS011;10301;50.832;4.080;2023-11-21T07:29:03;52.75;;;28.77;;
20283;SDS011;10301;50.832;4.080;2023-11-21T07:31:29;55.65;;;29.73;;
20283;SDS011;10301;50.832;4.080;2023-11-21T07:33:55;52.03;;;29.58;;
20283;SDS011;10301;50.832;4.080;2023-11-21T07:36:23;55.33;;;29.05;;
20283;SDS011;10301;50.832;4.080;2023-11-21T07:38:49;64.18;;;32.97;;
20283;SDS011;10301;50.832;4.080;2023-11-21T07:41:16;59.90;;;30.48;;
20283;SDS011;10301;50.832;4.080;2023-11-21T07:43:43;72.50;;;38.83;;
20283;SDS011;10301;50.832;4.080;2023-11-21T07:46:12;53.33;;;29.85;;
20283;SDS011;10301;50.832;4.080;2023-11-21T07:48:39;56.85;;;30.25;;
20283;SDS011;10301;50.832;4.080;2023-11-21T07:51:06;67.07;;;31.83;;
20283;SDS011;10301;50.832;4.080;2023-11-21T07:53:32;60.28;;;31.15;;
20283;SDS011;10301;50.832;4.080;2023-11-21T07:56:15;63.38;;;31.35;;
20283;SDS011;10301;50.832;4.080;2023-11-21T07:58:41;56.40;;;29.75;;
20283;SDS011;10301;50.832;4.080;2023-11-21T08:01:07;61.22;;;29.95;;
20283;SDS011;10301;50.832;4.080;2023-11-21T08:03:33;60.78;;;29.92;;
20283;SDS011;10301;50.832;4.080;2023-11-21T08:05:58;67.43;;;31.33;;
20283;SDS011;10301;50.832;4.080;2023-11-21T08:08:24;75.75;;;31.23;;
20283;SDS011;10301;50.832;4.080;2023-11-21T08:10:51;78.30;;;33.67;;
20283;SDS011;10301;50.832;4.080;2023-11-21T08:13:24;75.50;;;33.55;;
20283;SDS011;10301;50.832;4.080;2023-11-21T08:15:50;85.45;;;32.97;;
20283;SDS011;10301;50.832;4.080;2023-11-21T08:18:19;85.38;;;33.20;;
20283;SDS011;10301;50.832;4.080;2023-11-21T08:20:45;78.90;;;34.53;;
20283;SDS011;10301;50.832;4.080;2023-11-21T08:23:14;79.28;;;31.85;;
20283;SDS011;10301;50.832;4.080;2023-11-21T08:25:42;77.60;;;31.85;;
20283;SDS011;10301;50.832;4.080;2023-11-21T08:28:11;89.60;;;31.80;;
20283;SDS011;10301;50.832;4.080;2023-11-21T08:30:37;81.93;;;31.65;;
20283;SDS011;10301;50.832;4.080;2023-11-21T08:33:03;93.57;;;32.88;;
20283;SDS011;10301;50.832;4.080;2023-11-21T08:35:29;76.85;;;29.98;;
20283;SDS011;10301;50.832;4.080;2023-11-21T08:37:56;78.10;;;30.92;;
20283;SDS011;10301;50.832;4.080;2023-11-21T08:40:22;83.07;;;31.92;;
20283;SDS011;10301;50.832;4.080;2023-11-21T08:42:48;72.72;;;29.80;;
20283;SDS011;10301;50.832;4.080;2023-11-21T08:45:16;68.25;;;29.52;;
20283;SDS011;10301;50.832;4.080;2023-11-21T08:47:43;73.15;;;29.23;;
20283;SDS011;10301;50.832;4.080;2023-11-21T08:50:12;74.43;;;30.38;;
20283;SDS011;10301;50.832;4.080;2023-11-21T08:52:40;70.95;;;28.48;;
20283;SDS011;10301;50.832;4.080;2023-11-21T08:55:07;76.85;;;29.83;;
20283;SDS011;10301;50.832;4.080;2023-11-21T08:57:34;74.85;;;28.67;;
20283;SDS011;10301;50.832;4.080;2023-11-21T09:00:00;70.05;;;27.92;;
20283;SDS011;10301;50.832;4.080;2023-11-21T09:02:27;75.53;;;29.45;;
20283;SDS011;10301;50.832;4.080;2023-11-21T09:04:53;67.28;;;28.65;;
20283;SDS011;10301;50.832;4.080;2023-11-21T09:07:19;65.30;;;28.38;;
20283;SDS011;10301;50.832;4.080;2023-11-21T09:09:47;72.45;;;28.73;;
20283;SDS011;10301;50.832;4.080;2023-11-21T09:12:14;66.38;;;28.10;;
20283;SDS011;10301;50.832;4.080;2023-11-21T09:14:40;64.90;;;28.08;;
20283;SDS011;10301;50.832;4.080;2023-11-21T09:17:05;72.50;;;28.00;;
20283;SDS011;10301;50.832;4.080;2023-11-21T09:19:38;65.10;;;27.60;;
20283;SDS011;10301;50.832;4.080;2023-11-21T09:22:05;66.45;;;27.40;;
20283;SDS011;10301;50.832;4.080;2023-11-21T09:24:31;64.55;;;26.52;;
20283;SDS011;10301;50.832;4.080;2023-11-21T09:26:57;61.30;;;29.75;;
20283;SDS011;10301;50.832;4.080;2023-11-21T09:29:23;63.58;;;26.85;;
20283;SDS011;10301;50.832;4.080;2023-11-21T09:31:48;67.50;;;28.55;;
20283;SDS011;10301;50.832;4.080;2023-11-21T09:34:16;68.80;;;26.40;;
20283;SDS011;10301;50.832;4.080;2023-11-21T09:36:44;60.58;;;25.98;;
20283;SDS011;10301;50.832;4.080;2023-11-21T09:39:10;63.13;;;26.20;;
20283;SDS011;10301;50.832;4.080;2023-11-21T09:41:43;54.00;;;24.88;;
20283;SDS011;10301;50.832;4.080;2023-11-21T09:44:18;65.95;;;26.15;;
20283;SDS011;10301;50.832;4.080;2023-11-21T09:46:48;61.75;;;25.35;;
20283;SDS011;10301;50.832;4.080;2023-11-21T09:49:20;63.50;;;25.45;;
20283;SDS011;10301;50.832;4.080;2023-11-21T09:51:50;60.53;;;23.90;;
20283;SDS011;10301;50.832;4.080;2023-11-21T09:54:20;59.63;;;25.70;;
20283;SDS011;10301;50.832;4.080;2023-11-21T09:56:46;57.28;;;24.02;;
20283;SDS011;10301;50.832;4.080;2023-11-21T09:59:13;55.72;;;23.30;;
20283;SDS011;10301;50.832;4.080;2023-11-21T10:01:40;53.25;;;22.17;;
20283;SDS011;10301;50.832;4.080;2023-11-21T10:04:08;50.28;;;21.58;;
20283;SDS011;10301;50.832;4.080;2023-11-21T10:06:38;46.08;;;20.75;;
20283;SDS011;10301;50.832;4.080;2023-11-21T10:09:06;44.28;;;19.77;;
20283;SDS011;10301;50.832;4.080;2023-11-21T10:11:37;39.53;;;18.65;;
20283;SDS011;10301;50.832;4.080;2023-11-21T10:14:10;39.58;;;16.73;;
20283;SDS011;10301;50.832;4.080;2023-11-21T10:16:37;38.80;;;19.83;;
20283;SDS011;10301;50.832;4.080;2023-11-21T10:19:04;41.15;;;19.55;;
20283;SDS011;10301;50.832;4.080;2023-11-21T10:21:33;42.22;;;18.73;;
20283;SDS011;10301;50.832;4.080;2023-11-21T10:23:58;34.95;;;17.45;;
20283;SDS011;10301;50.832;4.080;2023-11-21T10:26:24;39.47;;;18.45;;
20283;SDS011;10301;50.832;4.080;2023-11-21T10:28:57;40.03;;;19.08;;
20283;SDS011;10301;50.832;4.080;2023-11-21T10:31:25;38.25;;;20.10;;
20283;SDS011;10301;50.832;4.080;2023-11-21T10:33:52;36.33;;;19.02;;
20283;SDS011;10301;50.832;4.080;2023-11-21T10:36:27;40.75;;;20.45;;
20283;SDS011;10301;50.832;4.080;2023-11-21T10:38:53;40.70;;;18.90;;
20283;SDS011;10301;50.832;4.080;2023-11-21T10:41:20;38.92;;;18.83;;
20283;SDS011;10301;50.832;4.080;2023-11-21T10:43:46;36.95;;;19.20;;
20283;SDS011;10301;50.832;4.080;2023-11-21T10:46:12;39.00;;;19.83;;
20283;SDS011;10301;50.832;4.080;2023-11-21T10:48:40;33.85;;;20.13;;
20283;SDS011;10301;50.832;4.080;2023-11-21T10:51:07;34.78;;;18.73;;
20283;SDS011;10301;50.832;4.080;2023-11-21T10:53:35;34.13;;;19.60;;
20283;SDS011;10301;50.832;4.080;2023-11-21T10:56:05;41.75;;;21.10;;
20283;SDS011;10301;50.832;4.080;2023-11-21T10:58:33;35.58;;;20.17;;
20283;SDS011;10301;50.832;4.080;2023-11-21T11:01:01;32.17;;;19.98;;
20283;SDS011;10301;50.832;4.080;2023-11-21T11:03:31;32.15;;;20.02;;
20283;SDS011;10301;50.832;4.080;2023-11-21T11:05:58;33.38;;;21.23;;
20283;SDS011;10301;50.832;4.080;2023-11-21T11:08:25;33.00;;;19.92;;
20283;SDS011;10301;50.832;4.080;2023-11-21T11:10:52;33.60;;;20.02;;
20283;SDS011;10301;50.832;4.080;2023-11-21T11:13:18;27.30;;;18.92;;
20283;SDS011;10301;50.832;4.080;2023-11-21T11:15:47;27.38;;;17.38;;
20283;SDS011;10301;50.832;4.080;2023-11-21T11:18:12;30.95;;;18.98;;
20283;SDS011;10301;50.832;4.080;2023-11-21T11:20:40;26.13;;;17.35;;
20283;SDS011;10301;50.832;4.080;2023-11-21T11:28:57;24.95;;;14.18;;
20283;SDS011;10301;50.832;4.080;2023-11-21T11:37:06;19.08;;;11.57;;
20283;SDS011;10301;50.832;4.080;2023-11-21T11:42:02;14.85;;;9.65;;
20283;SDS011;10301;50.832;4.080;2023-11-21T11:47:30;14.48;;;9.15;;
20283;SDS011;10301;50.832;4.080;2023-11-21T11:50:06;10.90;;;6.82;;
20283;SDS011;10301;50.832;4.080;2023-11-21T11:52:51;10.57;;;6.00;;
20283;SDS011;10301;50.832;4.080;2023-11-21T11:55:20;13.57;;;5.53;;
20283;SDS011;10301;50.832;4.080;2023-11-21T11:57:49;8.20;;;5.50;;
20283;SDS011;10301;50.832;4.080;2023-11-21T12:02:54;8.40;;;4.53;;
20283;SDS011;10301;50.832;4.080;2023-11-21T12:05:27;9.80;;;4.20;;
20283;SDS011;10301;50.832;4.080;2023-11-21T12:07:57;9.57;;;4.70;;
20283;SDS011;10301;50.832;4.080;2023-11-21T12:10:29;8.23;;;3.75;;
20283;SDS011;10301;50.832;4.080;2023-11-21T12:12:57;10.27;;;4.13;;
20283;SDS011;10301;50.832;4.080;2023-11-21T12:15:24;9.18;;;3.40;;
20283;SDS011;10301;50.832;4.080;2023-11-21T12:17:50;9.82;;;3.50;;
20283;SDS011;10301;50.832;4.080;2023-11-21T12:20:23;7.43;;;3.38;;
20283;SDS011;10301;50.832;4.080;2023-11-21T12:22:50;12.88;;;3.95;;
20283;SDS011;10301;50.832;4.080;2023-11-21T12:25:17;7.05;;;2.95;;
20283;SDS011;10301;50.832;4.080;2023-11-21T12:27:45;8.73;;;3.38;;
20283;SDS011;10301;50.832;4.080;2023-11-21T12:30:11;9.18;;;4.03;;
20283;SDS011;10301;50.832;4.080;2023-11-21T12:32:45;8.57;;;3.50;;
20283;SDS011;10301;50.832;4.080;2023-11-21T12:35:13;7.65;;;3.40;;
20283;SDS011;10301;50.832;4.080;2023-11-21T12:37:39;11.77;;;4.00;;
20283;SDS011;10301;50.832;4.080;2023-11-21T12:40:09;10.15;;;4.15;;
20283;SDS011;10301;50.832;4.080;2023-11-21T12:42:43;9.20;;;3.47;;
20283;SDS011;10301;50.832;4.080;2023-11-21T12:47:56;12.02;;;4.30;;
20283;SDS011;10301;50.832;4.080;2023-11-21T12:50:34;7.97;;;4.65;;
20283;SDS011;10301;50.832;4.080;2023-11-21T12:53:05;10.35;;;4.30;;
20283;SDS011;10301;50.832;4.080;2023-11-21T12:55:32;8.10;;;4.68;;
20283;SDS011;10301;50.832;4.080;2023-11-21T12:58:01;12.55;;;4.20;;
20283;SDS011;10301;50.832;4.080;2023-11-21T13:00:35;11.63;;;4.13;;
20283;SDS011;10301;50.832;4.080;2023-11-21T13:03:03;8.57;;;3.70;;
20283;SDS011;10301;50.832;4.080;2023-11-21T13:05:38;9.93;;;4.10;;
20283;SDS011;10301;50.832;4.080;2023-11-21T13:08:09;10.65;;;4.03;;
20283;SDS011;10301;50.832;4.080;2023-11-21T13:10:38;7.00;;;3.97;;
20283;SDS011;10301;50.832;4.080;2023-11-21T13:13:10;8.98;;;3.90;;
20283;SDS011;10301;50.832;4.080;2023-11-21T13:15:46;7.05;;;3.75;;
20283;SDS011;10301;50.832;4.080;2023-11-21T13:18:16;9.95;;;4.00;;
20283;SDS011;10301;50.832;4.080;2023-11-21T13:20:42;8.80;;;3.88;;
20283;SDS011;10301;50.832;4.080;2023-11-21T13:23:09;8.98;;;4.10;;
20283;SDS011;10301;50.832;4.080;2023-11-21T13:25:41;7.40;;;4.32;;
20283;SDS011;10301;50.832;4.080;2023-11-21T13:28:10;7.10;;;4.43;;
20283;SDS011;10301;50.832;4.080;2023-11-21T13:30:36;7.57;;;4.95;;
20283;SDS011;10301;50.832;4.080;2023-11-21T13:33:05;10.00;;;4.88;;
20283;SDS011;10301;50.832;4.080;2023-11-21T13:35:33;9.13;;;5.50;;
20283;SDS011;10301;50.832;4.080;2023-11-21T13:38:06;12.40;;;6.22;;
20283;SDS011;10301;50.832;4.080;2023-11-21T13:40:33;10.10;;;6.55;;
20283;SDS011;10301;50.832;4.080;2023-11-21T13:43:05;14.73;;;7.13;;
20283;SDS011;10301;50.832;4.080;2023-11-21T13:45:34;11.32;;;6.65;;
20283;SDS011;10301;50.832;4.080;2023-11-21T13:48:07;11.23;;;7.22;;
20283;SDS011;10301;50.832;4.080;2023-11-21T13:50:45;12.55;;;7.53;;
20283;SDS011;10301;50.832;4.080;2023-11-21T13:53:20;14.95;;;7.05;;
20283;SDS011;10301;50.832;4.080;2023-11-21T13:55:49;10.77;;;7.30;;
20283;SDS011;10301;50.832;4.080;2023-11-21T13:58:19;10.70;;;6.88;;
20283;SDS011;10301;50.832;4.080;2023-11-21T14:00:49;13.35;;;7.40;;
20283;SDS011;10301;50.832;4.080;2023-11-21T14:03:22;11.88;;;7.68;;
20283;SDS011;10301;50.832;4.080;2023-11-21T14:06:03;11.93;;;7.50;;
20283;SDS011;10301;50.832;4.080;2023-11-21T14:08:36;13.93;;;7.43;;
20283;SDS011;10301;50.832;4.080;2023-11-21T14:11:03;12.82;;;8.07;;
20283;SDS011;10301;50.832;4.080;2023-11-21T14:13:31;12.45;;;7.82;;
20283;SDS011;10301;50.832;4.080;2023-11-21T14:15:58;12.95;;;8.00;;
20283;SDS011;10301;50.832;4.080;2023-11-21T14:18:25;14.27;;;8.27;;
20283;SDS011;10301;50.832;4.080;2023-11-21T14:21:15;14.32;;;8.30;;
20283;SDS011;10301;50.832;4.080;2023-11-21T14:23:41;14.15;;;8.25;;
20283;SDS011;10301;50.832;4.080;2023-11-21T14:26:08;17.45;;;8.27;;
20283;SDS011;10301;50.832;4.080;2023-11-21T14:28:33;12.50;;;7.35;;
20283;SDS011;10301;50.832;4.080;2023-11-21T14:31:02;12.13;;;7.20;;
20283;SDS011;10301;50.832;4.080;2023-11-21T14:33:28;12.02;;;7.93;;
20283;SDS011;10301;50.832;4.080;2023-11-21T14:35:53;12.52;;;7.78;;
20283;SDS011;10301;50.832;4.080;2023-11-21T14:38:19;13.95;;;7.78;;
20283;SDS011;10301;50.832;4.080;2023-11-21T14:40:45;10.70;;;7.07;;
20283;SDS011;10301;50.832;4.080;2023-11-21T14:43:12;11.05;;;7.13;;
20283;SDS011;10301;50.832;4.080;2023-11-21T14:45:38;12.20;;;7.18;;
20283;SDS011;10301;50.832;4.080;2023-11-21T14:48:04;12.07;;;6.85;;
20283;SDS011;10301;50.832;4.080;2023-11-21T14:50:30;10.63;;;6.78;;